Time;durP1;ratioP1;P1;durP2;ratioP2;P2;SDS_P1;SDS_P2;PMS_P1;PMS_P2;Temp;Humidity;BMP_temperature;BMP_pressure;BME280_temperature;BME280_humidity;BME280_pressure;Samples;Min_cycle;Max_cycle;Signal;HPM_P1;HPM_P2
2023/05/16 00:02:18;;;;;;;8.55;1.75;;;;;;;-146.27;84.30;83810.69;5033180;28;20116;-73
2023/05/16 00:04:45;;;;;;;15.38;1.90;;;;;;;-146.27;84.26;83816.72;5033034;28;20116;-72
2023/05/16 00:07:10;;;;;;;13.13;1.45;;;;;;;-146.27;84.00;83818.72;5054758;28;20046;-72
2023/05/16 00:09:36;;;;;;;9.30;1.30;;;;;;;-146.27;83.99;83786.56;5043277;28;20120;-73
2023/05/16 00:12:01;;;;;;;22.55;2.58;;;;;;;-146.27;83.72;83846.84;5042217;28;20033;-72
2023/05/16 00:14:27;;;;;;;10.55;2.58;;;;;;;-146.27;84.94;83824.75;5048670;28;20105;-73
2023/05/16 00:16:53;;;;;;;14.98;1.58;;;;;;;-146.27;86.26;83790.59;5041146;28;20044;-73
2023/05/16 00:19:19;;;;;;;7.95;1.65;;;;;;;-146.27;85.72;83826.75;5035738;28;20367;-72
2023/05/16 00:21:44;;;;;;;10.85;1.55;;;;;;;-146.27;85.59;83812.69;5063275;28;20037;-73
2023/05/16 00:24:10;;;;;;;14.80;2.10;;;;;;;-146.27;84.56;83866.97;5032382;28;20033;-72
2023/05/16 00:26:35;;;;;;;12.18;2.03;;;;;;;-146.27;83.95;83830.78;5038739;28;20051;-73
2023/05/16 00:29:01;;;;;;;7.57;1.25;;;;;;;-146.27;84.48;83838.81;5034979;28;21592;-72
2023/05/16 00:31:26;;;;;;;12.55;1.70;;;;;;;-146.27;85.92;83846.84;5040156;28;20066;-73
2023/05/16 00:33:53;;;;;;;13.13;1.98;;;;;;;-146.27;86.29;83850.88;5032973;28;20060;-72
2023/05/16 00:36:19;;;;;;;12.07;2.17;;;;;;;-146.27;87.68;83846.84;5034646;28;20013;-72
2023/05/16 00:38:44;;;;;;;14.15;1.83;;;;;;;-146.27;87.49;83806.66;5041301;28;20040;-73
2023/05/16 00:41:09;;;;;;;12.77;2.10;;;;;;;-146.27;88.05;83814.72;5049832;28;20033;-73
2023/05/16 00:43:35;;;;;;;15.27;1.77;;;;;;;-146.27;87.16;83806.66;5032378;28;20458;-73
2023/05/16 00:46:00;;;;;;;12.00;2.15;;;;;;;-146.27;87.02;83818.72;5032956;28;20563;-73
2023/05/16 00:48:26;;;;;;;8.43;1.70;;;;;;;-146.27;87.17;83854.91;5042740;28;20416;-73
2023/05/16 00:50:52;;;;;;;8.48;2.05;;;;;;;-146.27;86.64;83808.69;5043438;28;20026;-73
2023/05/16 00:53:18;;;;;;;11.27;1.67;;;;;;;-146.27;87.61;83828.78;5039633;28;20040;-73
2023/05/16 00:55:44;;;;;;;10.98;1.70;;;;;;;-146.27;87.65;83822.75;5051140;28;20063;-74
2023/05/16 00:58:10;;;;;;;10.13;1.90;;;;;;;-146.27;87.45;83794.63;5051829;28;20100;-72
2023/05/16 01:00:36;;;;;;;7.03;1.60;;;;;;;-146.27;87.54;83842.84;5046808;28;20111;-73
2023/05/16 01:03:04;;;;;;;16.63;2.15;;;;;;;-146.27;88.09;83838.81;5052067;28;20100;-72
2023/05/16 01:05:30;;;;;;;13.63;1.83;;;;;;;-146.27;87.78;83826.75;5035342;28;20040;-72
2023/05/16 01:07:56;;;;;;;12.93;2.47;;;;;;;-146.27;88.32;83830.78;5032498;28;20112;-72
2023/05/16 01:10:21;;;;;;;9.75;2.60;;;;;;;-146.27;88.06;83806.66;5050717;28;20140;-73
2023/05/16 01:13:07;;;;;;;10.13;1.25;;;;;;;-146.27;87.34;83814.72;5033151;28;20079;-73
2023/05/16 01:15:49;;;;;;;10.73;1.73;;;;;;;-146.27;87.32;83804.66;5030690;28;20103;-73
2023/05/16 01:18:24;;;;;;;9.93;1.65;;;;;;;-146.27;87.38;83818.72;5049783;28;20117;-72
2023/05/16 01:21:02;;;;;;;5.28;1.48;;;;;;;-146.27;88.25;83828.78;5052363;28;20474;-72
2023/05/16 01:23:57;;;;;;;15.65;2.22;;;;;;;-146.27;87.00;83822.75;5054871;28;20166;-73
2023/05/16 01:26:23;;;;;;;;;;;;;;;-146.27;87.20;83820.75;5031997;28;20155;-72
2023/05/16 01:28:50;;;;;;;4.93;1.02;;;;;;;-146.27;87.96;83824.75;5031477;28;19917;-73
2023/05/16 01:31:16;;;;;;;13.23;2.10;;;;;;;-146.27;88.38;83812.69;5036955;28;20473;-72
2023/05/16 01:33:42;;;;;;;15.18;1.75;;;;;;;-146.27;88.59;83838.81;5049070;28;20044;-72
2023/05/16 01:36:33;;;;;;;12.13;1.67;;;;;;;-146.27;88.56;83870.97;5039620;28;20017;-72
2023/05/16 01:39:13;;;;;;;11.48;2.55;;;;;;;-146.27;89.70;83846.84;5049801;28;20120;-73
2023/05/16 01:42:00;;;;;;;8.90;1.48;;;;;;;-146.27;88.78;83870.97;5035332;28;20033;-72
2023/05/16 01:44:42;;;;;;;5.00;2.05;;;;;;;-146.27;88.16;83846.84;5040734;28;20028;-72
2023/05/16 01:47:11;;;;;;;9.00;1.58;;;;;;;-146.27;87.83;83864.94;5050901;28;20082;-74
2023/05/16 01:49:59;;;;;;;13.77;1.88;;;;;;;-146.27;88.45;83907.16;5052543;28;20085;-72
2023/05/16 01:52:39;;;;;;;3.60;1.20;;;;;;;-146.27;87.75;83814.72;5046498;28;20039;-72
2023/05/16 01:55:10;;;;;;;9.40;1.52;;;;;;;-146.27;88.32;83864.94;5031167;28;20021;-73
2023/05/16 01:57:39;;;;;;;12.95;1.55;;;;;;;-146.27;88.64;83854.91;5033502;28;20024;-72
2023/05/16 02:00:05;;;;;;;10.15;1.50;;;;;;;-146.27;86.75;83850.88;5041068;28;20048;-73
2023/05/16 02:02:31;;;;;;;15.23;2.65;;;;;;;-146.27;87.31;83846.84;5034057;28;20504;-73
2023/05/16 02:04:56;;;;;;;9.05;1.65;;;;;;;-146.27;87.32;83875.00;5046466;28;20030;-73
2023/05/16 02:07:22;;;;;;;12.48;1.73;;;;;;;-146.27;87.19;83856.91;5030548;28;20444;-73
2023/05/16 02:09:47;;;;;;;10.18;1.40;;;;;;;-146.27;86.22;83897.09;5047480;28;20492;-73
2023/05/16 02:12:13;;;;;;;19.08;1.83;;;;;;;-146.27;86.86;83850.88;5036850;28;20389;-73
2023/05/16 02:14:38;;;;;;;6.53;1.58;;;;;;;-146.27;87.40;83875.00;5030831;28;20055;-73
2023/05/16 02:17:03;;;;;;;13.40;1.55;;;;;;;-146.27;87.64;83856.91;5031073;28;20033;-72
2023/05/16 02:19:28;;;;;;;13.05;1.38;;;;;;;-146.27;87.46;83846.84;5032665;28;20045;-72
2023/05/16 02:21:54;;;;;;;9.27;1.85;;;;;;;-146.27;87.72;83907.16;5030827;28;20018;-72
2023/05/16 02:24:20;;;;;;;7.13;1.40;;;;;;;-146.27;88.03;83881.03;5035961;28;20044;-69
2023/05/16 02:26:45;;;;;;;9.18;1.55;;;;;;;-146.27;87.92;83858.91;5030785;28;20021;-69
2023/05/16 02:29:10;;;;;;;9.65;1.50;;;;;;;-146.27;87.78;83891.06;5030181;28;20036;-69
2023/05/16 02:31:36;;;;;;;8.98;1.52;;;;;;;-146.27;87.89;83891.06;5041882;28;20059;-70
2023/05/16 02:34:01;;;;;;;6.53;1.30;;;;;;;-146.27;87.56;83887.06;5041968;28;20037;-69
2023/05/16 02:36:27;;;;;;;10.07;1.42;;;;;;;-146.27;88.82;83913.19;5036977;28;20025;-69
2023/05/16 02:38:52;;;;;;;13.90;1.80;;;;;;;-146.27;87.59;83917.19;5042595;28;20036;-71
2023/05/16 02:41:18;;;;;;;8.20;1.63;;;;;;;-146.27;88.11;83907.16;5033936;28;20025;-69
2023/05/16 02:43:43;;;;;;;11.85;1.40;;;;;;;-146.27;88.09;83840.84;5041602;28;20035;-70
2023/05/16 02:46:29;;;;;;;11.32;1.50;;;;;;;-146.27;87.49;83887.06;5070645;28;20541;-69
2023/05/16 02:48:55;;;;;;;6.32;1.50;;;;;;;-146.27;86.85;83903.13;5044788;28;20700;-70
2023/05/16 02:51:23;;;;;;;12.80;1.63;;;;;;;-146.27;87.16;83866.97;5050076;28;20025;-71
2023/05/16 02:53:49;;;;;;;10.20;2.40;;;;;;;-146.27;88.38;83868.97;5050460;28;20031;-71
2023/05/16 02:56:14;;;;;;;6.63;1.55;;;;;;;-146.27;87.48;83844.84;5043702;28;20493;-71
2023/05/16 02:58:40;;;;;;;16.25;1.98;;;;;;;-146.27;88.16;83883.03;5029143;28;20029;-70
2023/05/16 03:01:06;;;;;;;12.40;1.50;;;;;;;-146.27;88.02;83887.06;5053190;28;20032;-70
2023/05/16 03:03:34;;;;;;;15.30;2.28;;;;;;;-146.27;88.22;83919.19;5042820;28;20384;-70
2023/05/16 03:05:59;;;;;;;9.00;1.40;;;;;;;-146.27;87.92;83885.03;5051805;28;20029;-70
2023/05/16 03:08:25;;;;;;;8.55;1.58;;;;;;;-146.27;87.65;83899.09;5048128;28;20021;-71
2023/05/16 03:10:50;;;;;;;14.35;2.42;;;;;;;-146.27;87.94;83899.09;5047511;28;20099;-70
2023/05/16 03:13:15;;;;;;;9.15;1.52;;;;;;;-146.27;89.52;83870.97;5036365;28;20031;-70
2023/05/16 03:15:41;;;;;;;12.82;1.40;;;;;;;-146.27;87.25;83923.22;5037615;28;20021;-69
2023/05/16 03:18:07;;;;;;;4.78;1.38;;;;;;;-146.27;87.22;83907.16;5040870;28;20476;-71
2023/05/16 03:20:32;;;;;;;11.05;2.60;;;;;;;-146.27;86.04;83883.03;5065436;28;20036;-70
2023/05/16 03:22:58;;;;;;;7.95;1.50;;;;;;;-146.27;86.22;83907.16;5058283;28;20025;-70
2023/05/16 03:25:23;;;;;;;6.15;1.58;;;;;;;-146.27;86.43;83903.13;5053990;28;20033;-69
2023/05/16 03:27:48;;;;;;;6.20;1.38;;;;;;;-146.27;86.60;83907.16;5051201;28;20044;-70
2023/05/16 03:30:15;;;;;;;11.90;1.77;;;;;;;-146.27;87.29;83903.13;5038543;28;20474;-69
2023/05/16 03:32:40;;;;;;;14.73;1.85;;;;;;;-146.27;86.23;83893.06;5037026;28;20576;-70
2023/05/16 03:35:06;;;;;;;12.68;2.13;;;;;;;-146.27;85.88;83903.13;5034318;28;20119;-71
2023/05/16 03:37:31;;;;;;;8.88;2.00;;;;;;;-146.27;86.52;83881.03;5033310;28;20061;-70
2023/05/16 03:39:56;;;;;;;13.65;1.55;;;;;;;-146.27;86.77;83875.00;5042508;28;20052;-70
2023/05/16 03:42:22;;;;;;;14.65;1.80;;;;;;;-146.27;87.35;83901.13;5034115;28;20538;-70
2023/05/16 03:44:47;;;;;;;16.27;1.92;;;;;;;-146.27;87.43;83903.13;5033840;28;20040;-69
2023/05/16 03:47:13;;;;;;;10.82;1.45;;;;;;;-146.27;87.07;83885.03;5033597;28;20029;-70
2023/05/16 03:49:38;;;;;;;11.95;2.08;;;;;;;-146.27;87.04;83864.94;5054581;28;20048;-70
2023/05/16 03:52:04;;;;;;;13.45;1.65;;;;;;;-146.27;86.83;83862.94;5064412;28;20037;-71
2023/05/16 03:54:30;;;;;;;10.27;1.40;;;;;;;-146.27;86.39;83872.97;5053093;28;20512;-71
2023/05/16 03:56:55;;;;;;;9.55;1.73;;;;;;;-146.27;85.56;83868.97;5040856;28;20055;-69
2023/05/16 03:59:20;;;;;;;14.45;1.98;;;;;;;-146.27;86.40;83868.97;5039394;28;20061;-69
2023/05/16 04:01:46;;;;;;;6.72;1.52;;;;;;;-146.27;86.79;83891.06;5046082;28;20405;-70
2023/05/16 04:04:13;;;;;;;10.85;1.50;;;;;;;-146.27;85.56;83907.16;5053244;28;20029;-70
2023/05/16 04:06:38;;;;;;;7.32;1.40;;;;;;;-146.27;85.32;83891.06;5039636;28;20468;-70
2023/05/16 04:09:05;;;;;;;8.32;1.90;;;;;;;-146.27;85.26;83836.81;5045198;28;20168;-70
2023/05/16 04:11:31;;;;;;;16.60;1.52;;;;;;;-146.27;85.83;83881.03;5032960;28;20266;-71
2023/05/16 04:13:56;;;;;;;11.57;1.15;;;;;;;-146.27;85.23;83820.75;5038240;28;20025;-70
2023/05/16 04:16:22;;;;;;;7.05;1.10;;;;;;;-146.27;83.90;83838.81;5033794;28;20036;-70
2023/05/16 04:18:47;;;;;;;8.45;1.27;;;;;;;-146.27;84.78;83860.94;5032980;28;20171;-70
2023/05/16 04:21:14;;;;;;;12.50;1.40;;;;;;;-146.27;83.29;83842.84;5050001;28;20107;-70
2023/05/16 04:23:40;;;;;;;11.80;1.23;;;;;;;-146.27;83.88;83862.94;5043728;28;20108;-71
2023/05/16 04:26:05;;;;;;;8.20;1.73;;;;;;;-146.27;85.08;83832.78;5053572;28;20589;-70
2023/05/16 04:28:31;;;;;;;5.82;0.93;;;;;;;-146.27;84.45;83887.06;5038438;28;20072;-69
2023/05/16 04:30:57;;;;;;;10.23;1.48;;;;;;;-146.27;84.80;83848.88;5053688;28;20365;-70
2023/05/16 04:33:22;;;;;;;13.05;1.77;;;;;;;-146.27;84.64;83879.00;5044883;28;20107;-70
2023/05/16 04:35:48;;;;;;;13.23;1.10;;;;;;;-146.27;83.61;83836.81;5055493;28;20013;-71
2023/05/16 04:38:14;;;;;;;8.20;1.42;;;;;;;-146.27;83.99;83872.97;5046903;28;20037;-71
2023/05/16 04:40:40;;;;;;;8.40;1.02;;;;;;;-146.27;84.47;83816.72;5045625;28;20405;-71
2023/05/16 04:43:06;;;;;;;8.45;1.42;;;;;;;-146.27;83.52;83810.69;5063951;28;20032;-70
2023/05/16 04:45:32;;;;;;;8.77;1.30;;;;;;;-146.27;82.14;83842.84;5051794;28;20455;-72
2023/05/16 04:47:57;;;;;;;5.65;1.10;;;;;;;-146.27;82.35;83854.91;5034119;28;20083;-71
2023/05/16 04:50:23;;;;;;;8.65;1.30;;;;;;;-146.27;82.20;83782.56;5032228;28;20511;-68
2023/05/16 04:52:48;;;;;;;7.47;1.30;;;;;;;-146.27;83.33;83758.44;5047635;28;20564;-71
2023/05/16 04:55:13;;;;;;;10.35;1.02;;;;;;;-146.27;83.39;83780.53;5043677;28;20112;-70
2023/05/16 04:57:39;;;;;;;16.25;1.67;;;;;;;-146.27;83.48;83758.44;5054539;28;20033;-70
2023/05/16 05:00:09;;;;;;;10.65;1.77;;;;;;;-146.27;85.10;83732.31;5055910;28;20112;-70
2023/05/16 05:02:34;;;;;;;10.27;1.38;;;;;;;-146.27;84.78;83802.66;5040413;28;20045;-70
2023/05/16 05:04:59;;;;;;;7.35;1.25;;;;;;;-146.27;83.77;83722.28;5046856;28;20057;-68
2023/05/16 05:07:27;;;;;;;3.17;0.90;;;;;;;-146.27;82.82;83776.53;5036001;28;20017;-70
2023/05/16 05:09:54;;;;;;;7.13;1.60;;;;;;;-146.27;83.29;83738.34;5051884;28;20045;-70
2023/05/16 05:12:20;;;;;;;8.05;1.58;;;;;;;-146.27;83.01;83770.50;5049306;28;20021;-70
2023/05/16 05:14:46;;;;;;;9.68;1.30;;;;;;;-146.27;81.62;83738.34;5042769;28;20102;-69
2023/05/16 05:17:11;;;;;;;6.63;1.40;;;;;;;-146.27;80.29;83724.28;5042298;28;20502;-72
2023/05/16 05:19:36;;;;;;;7.05;1.35;;;;;;;-146.27;82.28;83748.41;5048899;28;20028;-70
2023/05/16 05:22:02;;;;;;;11.73;2.20;;;;;;;-146.27;82.32;83726.28;5041852;28;20029;-69
2023/05/16 05:24:27;;;;;;;11.00;1.65;;;;;;;-146.27;81.53;83760.44;5046513;28;20048;-69
2023/05/16 05:26:52;;;;;;;11.27;1.33;;;;;;;-146.27;81.68;83734.31;5049610;28;20025;-68
2023/05/16 05:29:18;;;;;;;15.07;1.75;;;;;;;-146.27;80.24;83718.25;5051840;28;20031;-70
2023/05/16 05:31:43;;;;;;;11.40;1.52;;;;;;;-146.27;82.28;83706.19;5039366;28;20044;-70
2023/05/16 05:34:08;;;;;;;8.45;1.27;;;;;;;-146.27;82.96;83688.09;5035196;28;20033;-72
2023/05/16 05:36:34;;;;;;;8.82;1.00;;;;;;;-146.27;81.41;83682.09;5042848;28;20451;-71
2023/05/16 05:38:59;;;;;;;10.48;1.30;;;;;;;-146.27;80.89;83641.91;5034472;28;20032;-73
2023/05/16 05:41:26;;;;;;;5.13;0.90;;;;;;;-146.27;81.15;83657.97;5045075;28;20055;-73
2023/05/16 05:43:51;;;;;;;7.30;1.00;;;;;;;-146.27;81.19;83625.81;5039196;28;20024;-75
2023/05/16 05:46:17;;;;;;;4.88;1.50;;;;;;;-146.27;81.41;83653.94;5041041;28;20035;-74
2023/05/16 05:48:42;;;;;;;7.65;1.08;;;;;;;-146.27;81.45;83653.94;5063148;28;20028;-74
2023/05/16 05:51:07;;;;;;;3.97;0.90;;;;;;;-146.27;81.97;83595.69;5045134;28;20057;-72
2023/05/16 05:53:33;;;;;;;10.23;1.38;;;;;;;-146.27;82.38;83666.00;5045209;28;20504;-72
2023/05/16 05:55:58;;;;;;;5.10;1.10;;;;;;;-146.27;82.31;83625.81;5040347;28;20074;-73
2023/05/16 05:58:24;;;;;;;7.60;1.70;;;;;;;-146.27;82.14;83621.81;5046069;28;20120;-72
2023/05/16 06:00:49;;;;;;;5.35;1.20;;;;;;;-146.27;81.78;83625.81;5068764;28;20028;-72
2023/05/16 06:03:15;;;;;;;9.15;0.98;;;;;;;-146.27;81.84;83633.84;5044049;28;20081;-73
2023/05/16 06:05:40;;;;;;;5.45;1.00;;;;;;;-146.27;81.98;83643.91;5039614;28;20032;-72
2023/05/16 06:08:06;;;;;;;7.30;2.05;;;;;;;-146.27;82.57;83678.06;5066119;28;20124;-73
2023/05/16 06:10:31;;;;;;;7.13;1.20;;;;;;;-146.27;82.06;83637.88;5051476;28;20429;-73
2023/05/16 06:12:56;;;;;;;10.43;1.20;;;;;;;-146.27;81.72;83615.78;5036108;28;20179;-69
2023/05/16 06:15:22;;;;;;;6.38;1.48;;;;;;;-146.27;81.94;83601.72;5030331;28;20040;-69
2023/05/16 06:17:47;;;;;;;6.03;0.70;;;;;;;-146.27;79.91;83571.56;5040485;28;20036;-72
2023/05/16 06:20:13;;;;;;;7.22;1.02;;;;;;;-146.27;79.25;83577.59;5069362;28;20028;-71
2023/05/16 06:22:38;;;;;;;8.85;1.10;;;;;;;-146.27;78.47;83569.56;5059599;28;20054;-71
2023/05/16 06:25:04;;;;;;;8.43;1.10;;;;;;;-146.27;79.13;83581.59;5050611;28;20476;-71
2023/05/16 06:27:29;;;;;;;5.13;1.13;;;;;;;-146.27;78.03;83561.53;5050459;28;20120;-70
2023/05/16 06:29:55;;;;;;;3.17;0.95;;;;;;;-146.27;77.63;83573.56;5040343;28;20484;-69
2023/05/16 06:32:20;;;;;;;6.18;1.13;;;;;;;-146.27;77.21;83557.50;5049449;28;20029;-69
2023/05/16 06:34:47;;;;;;;9.25;1.10;;;;;;;-146.27;76.94;83565.53;5050572;28;20491;-70
2023/05/16 06:37:12;;;;;;;12.30;1.20;;;;;;;-146.27;77.36;83517.31;5067809;28;20036;-70
2023/05/16 06:39:38;;;;;;;6.35;1.00;;;;;;;-146.27;76.93;83509.28;5039033;28;20033;-70
2023/05/16 06:42:03;;;;;;;5.13;0.98;;;;;;;-146.27;76.44;83519.31;5050828;28;20443;-71
2023/05/16 06:44:29;;;;;;;6.57;1.42;;;;;;;-146.27;75.66;83545.44;5050500;28;20362;-70
2023/05/16 06:46:54;;;;;;;8.38;1.02;;;;;;;-146.27;75.59;83497.22;5031906;28;20029;-70
2023/05/16 06:49:20;;;;;;;4.22;1.30;;;;;;;-146.27;76.14;83505.25;5030352;28;20029;-70
2023/05/16 06:51:45;;;;;;;6.72;1.25;;;;;;;-146.27;76.68;83465.06;5041737;28;20025;-69
2023/05/16 06:54:11;;;;;;;6.30;0.88;;;;;;;-146.27;76.74;83461.06;5045704;28;20031;-69
2023/05/16 06:56:36;;;;;;;5.80;1.33;;;;;;;-146.27;74.97;83436.94;5050763;28;20035;-70
2023/05/16 06:59:01;;;;;;;4.55;1.20;;;;;;;-146.27;75.20;83465.06;5041225;28;20325;-70
2023/05/16 07:01:27;;;;;;;6.78;1.15;;;;;;;-146.27;75.80;83463.06;5030224;28;20026;-71
2023/05/16 07:03:53;;;;;;;6.85;0.90;;;;;;;-146.27;74.55;83404.78;5033459;28;20492;-70
2023/05/16 07:06:18;;;;;;;6.07;1.10;;;;;;;-146.27;74.53;83382.69;5050073;28;20107;-70
2023/05/16 07:08:43;;;;;;;7.53;1.00;;;;;;;-146.27;72.88;83461.06;5047893;28;20134;-70
2023/05/16 07:11:10;;;;;;;9.68;1.73;;;;;;;-146.27;73.46;83374.66;5050090;28;20060;-70
2023/05/16 07:13:36;;;;;;;10.18;1.73;;;;;;;-146.27;73.78;83402.78;5049995;28;20027;-70
2023/05/16 07:16:01;;;;;;;8.13;0.98;;;;;;;-146.27;73.26;83406.78;5050388;28;20063;-70
2023/05/16 07:18:27;;;;;;;6.05;0.80;;;;;;;-146.27;71.77;83368.63;5037891;28;20025;-69
2023/05/16 07:20:52;;;;;;;9.10;1.10;;;;;;;-146.27;71.02;83394.75;5041895;28;20025;-70
2023/05/16 07:23:17;;;;;;;11.30;0.85;;;;;;;-146.27;71.82;83430.91;5039307;28;20036;-71
2023/05/16 07:25:43;;;;;;;7.47;1.00;;;;;;;-146.27;71.16;83440.94;5050003;28;20044;-70
2023/05/16 07:28:08;;;;;;;5.40;0.80;;;;;;;-146.27;70.06;83449.00;5042180;28;20103;-71
2023/05/16 07:30:33;;;;;;;8.88;0.98;;;;;;;-146.27;70.91;83457.03;5030624;28;20025;-70
2023/05/16 07:32:59;;;;;;;6.53;1.13;;;;;;;-146.27;69.93;83449.00;5029950;28;20080;-71
2023/05/16 07:35:24;;;;;;;12.70;1.35;;;;;;;-146.27;69.28;83424.88;5029789;28;20025;-70
2023/05/16 07:37:50;;;;;;;6.63;0.98;;;;;;;-146.27;69.55;83461.06;5030036;28;20022;-70
2023/05/16 07:40:17;;;;;;;9.13;0.93;;;;;;;-146.27;70.49;83469.09;5029818;28;20021;-71
2023/05/16 07:42:43;;;;;;;7.40;1.00;;;;;;;-146.27;71.10;83469.09;5029942;28;20397;-72
2023/05/16 07:45:08;;;;;;;10.52;1.45;;;;;;;-146.27;70.70;83420.88;5031017;28;20029;-70
2023/05/16 07:47:34;;;;;;;7.28;1.17;;;;;;;-146.27;70.88;83398.75;5047273;28;20025;-70
2023/05/16 07:49:59;;;;;;;4.18;0.95;;;;;;;-146.27;69.97;83396.75;5053372;28;20025;-70
2023/05/16 07:52:25;;;;;;;7.40;1.73;;;;;;;-146.27;69.44;83350.53;5052123;28;20500;-69
2023/05/16 07:54:50;;;;;;;8.63;1.13;;;;;;;-146.27;69.49;83336.47;5053410;28;20476;-69
2023/05/16 07:57:16;;;;;;;5.45;1.23;;;;;;;-146.27;68.54;83322.41;5053091;28;20035;-71
2023/05/16 07:59:43;;;;;;;7.55;0.95;;;;;;;-146.27;68.55;83308.34;5053328;28;20025;-70
2023/05/16 08:02:10;;;;;;;5.70;1.13;;;;;;;-146.27;67.45;83338.47;5047300;28;20037;-70
2023/05/16 08:04:35;;;;;;;2.40;0.90;;;;;;;-146.27;68.38;83268.16;5052661;28;20035;-69
2023/05/16 08:07:01;;;;;;;11.60;1.27;;;;;;;-146.27;69.65;83272.19;5053027;28;20472;-69
2023/05/16 08:09:26;;;;;;;5.28;0.57;;;;;;;-146.27;68.72;83219.94;5052790;28;20048;-69
2023/05/16 08:11:51;;;;;;;7.38;1.13;;;;;;;-146.27;67.86;83187.78;5052223;28;20048;-69
2023/05/16 08:14:17;;;;;;;6.85;1.23;;;;;;;-146.27;65.92;83213.91;5053002;28;20551;-69
2023/05/16 08:16:43;;;;;;;7.88;1.20;;;;;;;-146.27;66.74;83123.50;5053450;28;20377;-69
2023/05/16 08:19:08;;;;;;;2.28;0.80;;;;;;;-146.27;65.62;83157.66;5035371;28;20473;-69
2023/05/16 08:21:33;;;;;;;10.05;1.30;;;;;;;-146.27;63.77;83203.88;5034713;28;20516;-70
2023/05/16 08:23:59;;;;;;;3.78;0.73;;;;;;;-146.27;63.94;83211.91;5052656;28;20029;-70
2023/05/16 08:26:25;;;;;;;3.95;0.82;;;;;;;-146.27;65.08;83199.84;5052547;28;20029;-69
2023/05/16 08:28:50;;;;;;;6.82;1.55;;;;;;;-146.27;61.79;83234.00;5052793;28;20021;-69
2023/05/16 08:31:16;;;;;;;3.72;1.02;;;;;;;-146.27;63.32;83211.91;5052801;28;20535;-69
2023/05/16 08:33:41;;;;;;;5.65;1.00;;;;;;;-146.27;63.99;83221.94;5045714;28;20573;-68
2023/05/16 08:36:08;;;;;;;5.97;0.70;;;;;;;-146.27;65.44;83191.81;5032995;28;20032;-69
2023/05/16 08:38:34;;;;;;;9.43;0.95;;;;;;;-146.27;63.41;83191.81;5051590;28;20033;-69
2023/05/16 08:41:00;;;;;;;4.88;1.50;;;;;;;-146.27;61.17;83244.03;5036813;28;20029;-70
2023/05/16 08:43:25;;;;;;;8.18;1.50;;;;;;;-146.27;63.58;83223.94;5050242;28;20029;-69
2023/05/16 08:45:50;;;;;;;9.88;1.75;;;;;;;-146.27;66.26;83209.88;5036758;28;20031;-69
2023/05/16 08:48:21;;;;;;;2.42;0.63;;;;;;;-146.27;65.16;83161.66;5052499;28;20017;-68
2023/05/16 08:50:47;;;;;;;9.15;1.00;;;;;;;-146.27;62.23;83149.63;5052344;28;20370;-68
2023/05/16 08:53:16;;;;;;;4.38;0.80;;;;;;;-146.27;61.21;83079.28;5052336;28;20036;-68
2023/05/16 08:55:44;;;;;;;4.55;0.88;;;;;;;-146.27;57.97;83101.38;5045940;28;20040;-69
2023/05/16 08:58:10;;;;;;;2.53;0.70;;;;;;;-146.27;57.07;83083.31;5050701;28;20140;-70
2023/05/16 09:00:36;;;;;;;7.15;1.15;;;;;;;-146.27;57.66;83109.44;5052055;28;20051;-69
2023/05/16 09:03:03;;;;;;;3.58;0.80;;;;;;;-146.27;58.28;83143.59;5051643;28;20033;-69
2023/05/16 09:05:28;;;;;;;5.32;0.65;;;;;;;-146.27;58.66;83083.31;5051518;28;20345;-70
2023/05/16 09:07:54;;;;;;;11.05;0.90;;;;;;;-146.27;58.78;83107.41;5032416;28;20021;-69
2023/05/16 09:10:20;;;;;;;7.22;1.40;;;;;;;-146.27;62.76;83031.06;5031966;28;20060;-70
2023/05/16 09:12:45;;;;;;;5.20;1.00;;;;;;;-146.27;58.68;83039.09;5049250;28;20024;-70
2023/05/16 09:15:11;;;;;;;5.53;1.10;;;;;;;-146.27;58.59;83031.06;5051975;28;20102;-70
2023/05/16 09:17:38;;;;;;;4.88;0.70;;;;;;;-146.27;58.63;83031.06;5051149;28;20020;-69
2023/05/16 09:20:17;;;;;;;7.22;1.05;;;;;;;-146.27;59.45;83051.16;5032891;28;20104;-70
2023/05/16 09:22:54;;;;;;;6.25;1.00;;;;;;;-146.27;58.16;83063.22;5048616;28;20045;-70
2023/05/16 09:25:22;;;;;;;7.30;1.20;;;;;;;-146.27;59.64;83010.97;5051738;28;20464;-69
2023/05/16 09:27:55;;;;;;;3.63;0.93;;;;;;;-146.27;58.51;82942.66;5051163;28;20059;-69
2023/05/16 09:30:34;;;;;;;9.93;1.00;;;;;;;-146.27;55.62;82936.66;5051674;28;20573;-70
2023/05/16 09:32:59;;;;;;;7.22;1.20;;;;;;;-146.27;56.00;82910.53;5051879;28;20025;-71
2023/05/16 09:35:25;;;;;;;3.47;0.80;;;;;;;-146.27;55.85;82922.59;5037275;28;20385;-69
2023/05/16 09:37:54;;;;;;;3.78;0.80;;;;;;;-146.27;56.34;82860.31;5049440;28;20040;-71
2023/05/16 09:40:21;;;;;;;8.45;0.68;;;;;;;-146.27;55.24;82858.28;5039121;28;20017;-68
2023/05/16 09:43:02;;;;;;;6.00;1.23;;;;;;;-146.27;54.10;82886.41;5050257;28;20036;-69
2023/05/16 09:45:27;;;;;;;3.88;0.77;;;;;;;-146.27;54.71;82898.47;5049981;28;20509;-67
2023/05/16 09:47:53;;;;;;;8.02;1.35;;;;;;;-146.27;56.18;82878.38;5032320;28;20023;-74
2023/05/16 09:50:18;;;;;;;7.13;0.80;;;;;;;-146.27;55.49;82854.28;5031379;28;20061;-73
2023/05/16 09:52:43;;;;;;;7.80;1.10;;;;;;;-146.27;54.56;82878.38;5043753;28;20483;-74
2023/05/16 09:55:09;;;;;;;4.13;0.95;;;;;;;-146.27;54.09;82854.28;5046007;28;20107;-73
2023/05/16 09:57:41;;;;;;;3.75;0.82;;;;;;;-146.27;54.10;82880.41;5050517;28;20031;-73
2023/05/16 10:00:10;;;;;;;5.30;1.42;;;;;;;-146.27;54.04;82830.16;5051064;28;20107;-72
2023/05/16 10:02:38;;;;;;;2.15;0.88;;;;;;;-146.27;52.98;82822.13;5040212;28;20033;-73
2023/05/16 10:05:03;;;;;;;2.72;0.90;;;;;;;-146.27;50.40;82818.13;5048952;28;20036;-72
2023/05/16 10:07:31;;;;;;;7.07;1.00;;;;;;;-146.27;51.43;82787.97;5050166;28;20021;-72
2023/05/16 10:09:59;;;;;;;4.85;1.15;;;;;;;-146.27;50.99;82840.22;5048685;28;20056;-74
2023/05/16 10:12:30;;;;;;;6.28;1.15;;;;;;;-146.27;52.11;82794.00;5039872;28;20116;-73
2023/05/16 10:14:55;;;;;;;3.55;0.55;;;;;;;-146.27;51.55;82798.03;5036105;28;20041;-73
2023/05/16 10:17:21;;;;;;;5.75;0.95;;;;;;;-146.27;50.98;82806.06;5047225;28;20475;-73
2023/05/16 10:19:47;;;;;;;6.80;1.08;;;;;;;-146.27;50.84;82838.19;5048910;28;20162;-72
2023/05/16 10:22:14;;;;;;;5.13;0.80;;;;;;;-146.27;51.61;82834.19;5049361;28;20094;-73
2023/05/16 10:24:50;;;;;;;5.30;0.95;;;;;;;-146.27;50.87;82824.13;5044115;28;20025;-74
2023/05/16 10:27:16;;;;;;;1.38;0.63;;;;;;;-146.27;50.31;82747.78;5046316;28;20838;-73
2023/05/16 10:29:45;;;;;;;5.43;0.70;;;;;;;-146.27;49.44;82741.78;5047670;28;20021;-73
2023/05/16 10:32:12;;;;;;;6.43;0.93;;;;;;;-146.27;50.40;82717.66;5049665;28;20135;-72
2023/05/16 10:34:38;;;;;;;4.50;1.10;;;;;;;-146.27;48.39;82719.66;5047742;28;20477;-72
2023/05/16 10:37:04;;;;;;;5.00;0.70;;;;;;;-146.27;47.77;82655.38;5049002;28;20139;-73
2023/05/16 10:39:31;;;;;;;6.28;1.17;;;;;;;-146.27;53.64;82637.31;5049597;28;20017;-73
2023/05/16 10:41:56;;;;;;;4.85;0.90;;;;;;;-146.27;53.08;82617.22;5034389;28;20040;-74
2023/05/16 10:44:22;;;;;;;5.70;1.10;;;;;;;-146.27;49.15;82564.97;5041264;28;20024;-74
2023/05/16 10:46:47;;;;;;;2.95;0.50;;;;;;;-146.27;47.08;82498.69;5049946;28;20023;-73
2023/05/16 10:49:24;;;;;;;3.65;0.68;;;;;;;-146.27;47.79;82540.88;5045120;28;20039;-74
2023/05/16 10:52:01;;;;;;;4.88;1.10;;;;;;;-146.27;49.30;82502.72;5044249;28;20436;-73
2023/05/16 10:54:34;;;;;;;4.53;1.00;;;;;;;-146.27;50.01;82482.63;5049816;28;20120;-73
2023/05/16 10:57:05;;;;;;;5.93;0.90;;;;;;;-146.27;49.17;82392.22;5050651;28;20123;-73
2023/05/16 10:59:39;;;;;;;3.17;0.70;;;;;;;-146.27;45.91;82400.25;5044148;28;20064;-75
2023/05/16 11:02:21;;;;;;;2.90;1.10;;;;;;;-146.27;46.05;82416.31;5046475;28;20033;-74
2023/05/16 11:04:58;;;;;;;9.30;0.75;;;;;;;-146.27;48.01;82366.09;5047002;28;20032;-74
2023/05/16 11:07:25;;;;;;;6.45;1.27;;;;;;;-146.27;45.62;82392.22;5048076;28;20029;-75
2023/05/16 11:10:14;;;;;;;6.53;0.65;;;;;;;-146.27;45.24;82440.44;5042173;28;20440;-75
2023/05/16 11:12:44;;;;;;;2.10;0.55;;;;;;;-146.27;46.30;82388.22;5047205;28;20437;-75
2023/05/16 11:15:17;;;;;;;7.38;0.80;;;;;;;-146.27;44.30;82404.28;5041437;28;20103;-75